Time;durP1;ratioP1;P1;durP2;ratioP2;P2;SDS_P1;SDS_P2;PMS_P1;PMS_P2;Temp;Humidity;BMP_temperature;BMP_pressure;BME280_temperature;BME280_humidity;BME280_pressure;Samples;Min_cycle;Max_cycle;Signal;HPM_P1;HPM_P2
2023/07/14 00:00:42;;;;;;;7.97;7.17;;;17.80;99.90;;;;;;5017295;28;20185;-64
2023/07/14 00:03:10;;;;;;;7.70;6.50;;;17.90;99.90;;;;;;5053055;28;20404;-63
2023/07/14 00:05:38;;;;;;;6.40;5.90;;;17.90;99.90;;;;;;5054875;28;20495;-62
2023/07/14 00:08:14;;;;;;;6.83;6.23;;;17.90;99.90;;;;;;5034452;28;20440;-63
2023/07/14 00:10:40;;;;;;;7.30;6.27;;;18.00;99.90;;;;;;5034445;28;20475;-62
2023/07/14 00:13:09;;;;;;;6.57;6.07;;;18.20;99.90;;;;;;5034891;28;20487;-63
2023/07/14 00:15:39;;;;;;;6.80;6.30;;;18.20;99.90;;;;;;5034524;28;20472;-62
2023/07/14 00:18:24;;;;;;;5.63;5.23;;;18.30;99.90;;;;;;5024150;28;20500;-63
2023/07/14 00:20:50;;;;;;;6.30;5.90;;;18.30;99.90;;;;;;5034271;28;20444;-63
2023/07/14 00:23:17;;;;;;;6.40;5.90;;;18.40;99.90;;;;;;5018518;28;20504;-63
2023/07/14 00:25:45;;;;;;;6.63;6.13;;;18.40;99.90;;;;;;5033844;28;20421;-63
2023/07/14 00:28:19;;;;;;;6.27;5.83;;;18.40;99.90;;;;;;5034927;28;20447;-63
2023/07/14 00:30:47;;;;;;;6.17;5.67;;;18.40;99.90;;;;;;5034077;28;20423;-63
2023/07/14 00:33:15;;;;;;;5.80;5.40;;;18.50;99.90;;;;;;5034864;28;20488;-63
2023/07/14 00:35:42;;;;;;;7.83;6.00;;;18.50;99.90;;;;;;5030830;28;20429;-63
2023/07/14 00:38:09;;;;;;;6.57;5.97;;;18.60;99.90;;;;;;5014562;28;20437;-63
2023/07/14 00:40:36;;;;;;;6.43;5.93;;;18.60;99.90;;;;;;5014880;28;20824;-63
2023/07/14 00:43:04;;;;;;;6.20;5.70;;;18.60;99.90;;;;;;5014747;28;20494;-63
2023/07/14 00:45:32;;;;;;;6.37;5.83;;;18.60;99.90;;;;;;5014483;28;20413;-63
2023/07/14 00:48:04;;;;;;;6.00;5.50;;;18.60;99.90;;;;;;5012419;28;20436;-63
2023/07/14 00:50:32;;;;;;;6.37;5.90;;;18.60;99.90;;;;;;5014723;28;20410;-63
2023/07/14 00:53:03;;;;;;;6.87;6.23;;;18.60;99.90;;;;;;5013406;28;21115;-63
2023/07/14 00:55:44;;;;;;;6.70;6.20;;;18.60;99.90;;;;;;5013607;28;20398;-64
2023/07/14 00:58:18;;;;;;;6.63;6.03;;;18.60;99.90;;;;;;5015276;28;20422;-63
2023/07/14 01:01:03;;;;;;;7.20;6.70;;;18.60;99.90;;;;;;4994189;28;20407;-63
2023/07/14 01:03:29;;;;;;;7.17;6.57;;;18.70;99.90;;;;;;5014014;28;20422;-63
2023/07/14 01:05:58;;;;;;;6.53;5.93;;;18.60;99.90;;;;;;5016709;28;20904;-63
2023/07/14 01:08:25;;;;;;;6.90;6.40;;;18.70;99.90;;;;;;5013742;28;20457;-63
2023/07/14 01:10:51;;;;;;;6.80;6.20;;;18.70;99.90;;;;;;5020527;28;20437;-63
2023/07/14 01:13:18;;;;;;;6.17;5.67;;;18.70;99.90;;;;;;5020349;28;20422;-64
2023/07/14 01:15:44;;;;;;;6.90;6.23;;;18.70;99.90;;;;;;5038838;28;20542;-63
2023/07/14 01:18:11;;;;;;;6.70;6.00;;;18.70;99.90;;;;;;5053504;28;20420;-63
2023/07/14 01:20:38;;;;;;;6.70;6.20;;;18.70;99.90;;;;;;5040753;28;20193;-63
2023/07/14 01:23:31;;;;;;;6.87;6.27;;;18.70;99.90;;;;;;5032921;28;20421;-63
2023/07/14 01:26:10;;;;;;;6.70;6.10;;;18.70;99.90;;;;;;5033926;28;20440;-63
2023/07/14 01:28:36;;;;;;;6.10;5.70;;;18.70;99.90;;;;;;5031759;28;20502;-63
2023/07/14 01:31:02;;;;;;;8.57;5.50;;;18.70;99.90;;;;;;5032901;28;20705;-63
2023/07/14 01:33:28;;;;;;;7.30;6.30;;;18.80;99.90;;;;;;5033136;28;20827;-63
2023/07/14 01:35:59;;;;;;;6.43;5.83;;;18.80;99.90;;;;;;5031743;28;20790;-63
2023/07/14 01:38:26;;;;;;;6.30;5.80;;;18.80;99.90;;;;;;5033160;28;20413;-63
2023/07/14 01:40:53;;;;;;;6.93;6.40;;;18.80;99.90;;;;;;5036996;28;20452;-63
2023/07/14 01:43:19;;;;;;;7.77;7.07;;;18.80;99.90;;;;;;5035140;28;20875;-63
2023/07/14 01:45:56;;;;;;;7.50;6.80;;;18.70;99.90;;;;;;5032573;28;20436;-63
2023/07/14 01:48:26;;;;;;;6.67;6.10;;;18.80;99.90;;;;;;5016210;28;20385;-63
2023/07/14 01:50:57;;;;;;;7.47;6.13;;;18.80;99.90;;;;;;5030701;28;20427;-62
2023/07/14 01:53:27;;;;;;;6.80;6.30;;;18.80;99.90;;;;;;5033456;28;20416;-63
2023/07/14 01:55:56;;;;;;;7.00;6.40;;;18.80;99.90;;;;;;5038781;28;20444;-63
2023/07/14 01:58:35;;;;;;;6.47;5.97;;;18.80;99.90;;;;;;5035208;28;20400;-63
2023/07/14 02:01:02;;;;;;;6.53;6.10;;;18.80;99.90;;;;;;5031832;28;20464;-63
2023/07/14 02:03:35;;;;;;;6.30;5.90;;;18.80;99.90;;;;;;5033215;28;20776;-63
2023/07/14 02:06:00;;;;;;;6.47;6.07;;;18.80;99.90;;;;;;5032306;28;20456;-63
2023/07/14 02:08:27;;;;;;;7.43;6.73;;;18.70;99.90;;;;;;5036643;28;20555;-63
2023/07/14 02:10:55;;;;;;;6.23;5.73;;;18.70;99.90;;;;;;5032452;28;20412;-63
2023/07/14 02:13:22;;;;;;;6.63;6.03;;;18.80;99.90;;;;;;5032974;28;20411;-63
2023/07/14 02:15:49;;;;;;;7.83;6.00;;;18.80;99.90;;;;;;5034574;28;20467;-63
2023/07/14 02:18:21;;;;;;;5.70;5.30;;;18.80;99.90;;;;;;5032531;28;20447;-63
2023/07/14 02:20:48;;;;;;;6.17;5.77;;;18.80;99.90;;;;;;5032007;28;20880;-63
2023/07/14 02:23:21;;;;;;;6.43;5.77;;;18.70;99.90;;;;;;5014912;28;20456;-63
2023/07/14 02:25:58;;;;;;;6.13;5.60;;;18.60;99.90;;;;;;5031722;28;20419;-62
2023/07/14 02:28:24;;;;;;;6.07;5.67;;;18.70;99.90;;;;;;5032825;28;20480;-63
2023/07/14 02:30:57;;;;;;;6.70;6.10;;;18.60;99.90;;;;;;5031422;28;20971;-63
2023/07/14 02:33:30;;;;;;;9.10;5.83;;;18.60;99.90;;;;;;5031962;28;20463;-63
2023/07/14 02:36:28;;;;;;;6.03;5.63;;;18.60;99.90;;;;;;5033280;28;20460;-63
2023/07/14 02:38:55;;;;;;;6.23;5.63;;;18.60;99.90;;;;;;5032061;28;20386;-62
2023/07/14 02:41:28;;;;;;;6.17;5.77;;;18.60;99.90;;;;;;5033113;28;20456;-63
2023/07/14 02:44:00;;;;;;;6.67;6.17;;;18.60;99.90;;;;;;5031217;28;20427;-63
2023/07/14 02:46:33;;;;;;;6.60;6.20;;;18.60;99.90;;;;;;5032684;28;20401;-63
2023/07/14 02:48:59;;;;;;;6.23;5.83;;;18.60;99.90;;;;;;5034845;28;20409;-63
2023/07/14 02:51:24;;;;;;;6.60;6.10;;;18.50;99.90;;;;;;5040833;28;20985;-63
2023/07/14 02:53:50;;;;;;;7.47;6.53;;;18.50;99.90;;;;;;5051434;28;20200;-63
2023/07/14 02:56:17;;;;;;;7.33;6.70;;;18.50;99.90;;;;;;5051476;28;20550;-63
2023/07/14 02:58:48;;;;;;;6.90;6.40;;;18.50;99.90;;;;;;5027276;28;20618;-63
2023/07/14 03:01:14;;;;;;;6.70;6.30;;;18.50;99.90;;;;;;5032375;28;20437;-63
2023/07/14 03:03:40;;;;;;;6.63;6.13;;;18.40;99.90;;;;;;5014187;28;20482;-63
2023/07/14 03:06:06;;;;;;;6.93;6.40;;;18.50;99.90;;;;;;5038648;28;20428;-63
2023/07/14 03:08:32;;;;;;;8.13;7.53;;;18.50;99.90;;;;;;5050209;28;20166;-65
2023/07/14 03:10:59;;;;;;;7.90;7.40;;;18.50;99.90;;;;;;5037590;28;20919;-65
2023/07/14 03:13:25;;;;;;;7.33;6.93;;;18.50;99.90;;;;;;5038462;28;20170;-65
2023/07/14 03:15:51;;;;;;;8.00;7.40;;;18.50;99.90;;;;;;5018834;28;20464;-65
2023/07/14 03:18:18;;;;;;;8.00;7.40;;;18.50;99.90;;;;;;5039000;28;20471;-65
2023/07/14 03:20:45;;;;;;;7.50;7.00;;;18.50;99.90;;;;;;5041914;28;20416;-65
2023/07/14 03:23:11;;;;;;;7.60;7.10;;;18.60;99.90;;;;;;5038449;28;20420;-65
2023/07/14 03:25:37;;;;;;;8.20;7.70;;;18.60;99.90;;;;;;5038381;28;20421;-66
2023/07/14 03:28:03;;;;;;;7.87;7.27;;;18.60;99.90;;;;;;5038708;28;20412;-65
2023/07/14 03:30:31;;;;;;;7.80;7.30;;;18.60;99.90;;;;;;5058478;28;20225;-65
2023/07/14 03:32:57;;;;;;;9.47;8.03;;;18.60;99.90;;;;;;5056960;28;20511;-65
2023/07/14 03:35:23;;;;;;;7.73;7.13;;;18.60;99.90;;;;;;5045744;28;20520;-65
2023/07/14 03:37:49;;;;;;;7.20;6.60;;;18.60;99.90;;;;;;5037495;28;20236;-62
2023/07/14 03:40:15;;;;;;;7.17;6.60;;;18.70;99.90;;;;;;5038027;28;20680;-66
2023/07/14 03:42:43;;;;;;;7.67;7.07;;;18.70;99.90;;;;;;5037735;28;20456;-66
2023/07/14 03:45:09;;;;;;;8.13;7.60;;;18.70;99.90;;;;;;5052234;28;20423;-65
2023/07/14 03:47:39;;;;;;;8.30;7.80;;;18.70;99.90;;;;;;5056135;28;20420;-69
2023/07/14 03:50:07;;;;;;;8.40;7.60;;;18.70;99.90;;;;;;5037253;28;20488;-66
2023/07/14 03:52:33;;;;;;;7.13;6.63;;;18.60;99.90;;;;;;5038105;28;20431;-65
2023/07/14 03:54:59;;;;;;;8.00;7.20;;;18.60;99.90;;;;;;5036528;28;20421;-66
2023/07/14 03:57:25;;;;;;;7.73;7.07;;;18.60;99.90;;;;;;5037460;28;20264;-65
2023/07/14 03:59:51;;;;;;;7.13;6.73;;;18.60;99.90;;;;;;5037580;28;20515;-62
2023/07/14 04:02:17;;;;;;;7.87;7.27;;;18.60;99.90;;;;;;5037867;28;20551;-66
2023/07/14 04:04:43;;;;;;;7.67;7.17;;;18.60;99.90;;;;;;5038420;28;20174;-66
2023/07/14 04:07:09;;;;;;;7.60;7.00;;;18.60;99.90;;;;;;5036263;28;20960;-66
2023/07/14 04:09:35;;;;;;;7.27;6.87;;;18.60;99.90;;;;;;5037947;28;20236;-66
2023/07/14 04:12:01;;;;;;;7.50;7.00;;;18.60;99.90;;;;;;5038004;28;20235;-67
2023/07/14 04:14:26;;;;;;;7.50;7.00;;;18.60;99.90;;;;;;5037712;28;20506;-66
2023/07/14 04:16:52;;;;;;;7.70;7.10;;;18.60;99.90;;;;;;5037509;28;20232;-63
2023/07/14 04:19:18;;;;;;;7.30;6.70;;;18.60;99.90;;;;;;5024512;28;20179;-66
2023/07/14 04:21:43;;;;;;;7.87;7.20;;;18.50;99.90;;;;;;5015361;28;20203;-66
2023/07/14 04:24:09;;;;;;;7.13;6.63;;;18.60;99.90;;;;;;5014488;28;20730;-66
2023/07/14 04:26:36;;;;;;;8.83;8.13;;;18.60;99.90;;;;;;5014700;28;20173;-66
2023/07/14 04:29:05;;;;;;;54.00;41.40;;;18.60;99.90;;;;;;5013745;28;20403;-67
2023/07/14 04:31:30;;;;;;;14.80;13.33;;;18.70;99.90;;;;;;4997443;28;20453;-65
2023/07/14 04:33:56;;;;;;;18.77;16.93;;;18.80;99.90;;;;;;5021452;28;20452;-66
2023/07/14 04:36:22;;;;;;;8.47;7.67;;;18.70;99.90;;;;;;5021122;28;20190;-66
2023/07/14 04:39:01;;;;;;;19.43;17.37;;;18.70;99.90;;;;;;5018400;28;20193;-65
2023/07/14 04:41:27;;;;;;;13.80;12.50;;;18.80;99.90;;;;;;5024384;28;20493;-66
2023/07/14 04:43:53;;;;;;;10.40;9.60;;;18.80;99.90;;;;;;5021771;28;20446;-63
2023/07/14 04:46:18;;;;;;;9.00;8.20;;;18.90;99.90;;;;;;5023297;28;20454;-66
2023/07/14 04:48:44;;;;;;;8.37;7.70;;;18.80;99.90;;;;;;5005330;28;20759;-66
2023/07/14 04:51:10;;;;;;;9.10;8.30;;;18.80;99.90;;;;;;5021858;28;20183;-66
2023/07/14 04:53:36;;;;;;;9.57;7.37;;;18.90;99.90;;;;;;5005031;28;20175;-66
2023/07/14 04:56:02;;;;;;;7.93;7.33;;;19.00;99.90;;;;;;5022013;28;20171;-66
2023/07/14 04:58:28;;;;;;;7.87;7.27;;;19.00;99.90;;;;;;5022293;28;20179;-65
2023/07/14 05:00:53;;;;;;;9.60;6.90;;;19.00;99.90;;;;;;5022521;28;20424;-63
2023/07/14 05:03:19;;;;;;;9.83;7.50;;;19.10;99.90;;;;;;5022842;28;20175;-66
2023/07/14 05:05:45;;;;;;;17.90;15.67;;;19.10;99.90;;;;;;5019076;28;20631;-66
2023/07/14 05:08:12;;;;;;;13.33;12.20;;;19.20;99.90;;;;;;5024378;28;20315;-66
2023/07/14 05:10:38;;;;;;;23.57;20.40;;;19.20;99.90;;;;;;5020801;28;20429;-65
2023/07/14 05:13:05;;;;;;;10.50;9.50;;;19.20;99.90;;;;;;5022586;28;20422;-66
2023/07/14 05:15:31;;;;;;;7.30;6.60;;;19.30;99.90;;;;;;5027774;28;20460;-66
2023/07/14 05:17:56;;;;;;;8.70;7.80;;;19.30;99.90;;;;;;5032651;28;20487;-66
2023/07/14 05:20:23;;;;;;;8.77;8.07;;;19.40;99.90;;;;;;5033189;28;20508;-66
2023/07/14 05:22:53;;;;;;;8.17;7.57;;;19.50;99.90;;;;;;5033815;28;20209;-66
2023/07/14 05:25:20;;;;;;;7.53;6.90;;;19.50;99.90;;;;;;5033606;28;20487;-66
2023/07/14 05:27:46;;;;;;;7.40;6.77;;;19.60;99.90;;;;;;5033435;28;20773;-67
2023/07/14 05:30:14;;;;;;;6.37;5.90;;;19.60;99.90;;;;;;5031651;28;20432;-66
2023/07/14 05:32:42;;;;;;;6.77;6.17;;;19.60;99.90;;;;;;5033337;28;20798;-66
2023/07/14 05:35:08;;;;;;;7.80;7.10;;;19.60;99.90;;;;;;5032799;28;20753;-66
2023/07/14 05:37:35;;;;;;;8.40;6.30;;;19.70;99.90;;;;;;5032484;28;20444;-66
2023/07/14 05:40:00;;;;;;;10.30;9.27;;;19.70;99.90;;;;;;5014436;28;20442;-65
2023/07/14 05:42:26;;;;;;;7.97;7.10;;;19.70;99.90;;;;;;5035106;28;20960;-66
2023/07/14 05:44:52;;;;;;;7.10;6.50;;;19.70;99.90;;;;;;5037713;28;20169;-66
2023/07/14 05:47:23;;;;;;;8.47;7.57;;;19.80;99.90;;;;;;5033358;28;20187;-66
2023/07/14 05:49:49;;;;;;;9.90;7.13;;;19.80;99.90;;;;;;5033317;28;20170;-64
2023/07/14 05:52:15;;;;;;;18.87;7.03;;;20.00;99.90;;;;;;5032618;28;20839;-64
2023/07/14 05:54:41;;;;;;;6.77;6.20;;;20.40;99.90;;;;;;5034849;28;20524;-65
2023/07/14 05:57:06;;;;;;;7.70;7.20;;;20.80;99.90;;;;;;5031820;28;20203;-64
2023/07/14 05:59:32;;;;;;;7.20;6.60;;;21.10;99.90;;;;;;5014839;28;20174;-65
2023/07/14 06:01:58;;;;;;;6.47;5.93;;;21.50;99.90;;;;;;5035756;28;20213;-68
2023/07/14 06:04:24;;;;;;;6.60;6.07;;;21.70;99.90;;;;;;5034992;28;20209;-72
2023/07/14 06:06:50;;;;;;;6.97;6.30;;;21.90;99.90;;;;;;5032579;28;20202;-72
2023/07/14 06:09:16;;;;;;;6.40;6.00;;;22.10;99.90;;;;;;5036237;28;20504;-72
2023/07/14 06:11:43;;;;;;;6.40;5.97;;;22.20;99.90;;;;;;5032779;28;20486;-73
2023/07/14 06:14:09;;;;;;;6.53;6.03;;;22.20;99.90;;;;;;5029603;28;20456;-72
2023/07/14 06:16:37;;;;;;;6.50;6.00;;;22.30;99.90;;;;;;5032880;28;20519;-73
2023/07/14 06:19:03;;;;;;;6.87;6.43;;;22.30;99.90;;;;;;5032205;28;20424;-71
2023/07/14 06:21:29;;;;;;;7.20;6.20;;;22.30;99.90;;;;;;5032950;28;20457;-72
2023/07/14 06:23:55;;;;;;;6.93;6.37;;;22.40;99.90;;;;;;5033198;28;20467;-72
2023/07/14 06:26:20;;;;;;;5.93;5.47;;;22.40;99.90;;;;;;5033114;28;20895;-72
2023/07/14 06:28:46;;;;;;;8.20;6.73;;;22.40;99.90;;;;;;5032909;28;20421;-72
2023/07/14 06:31:13;;;;;;;6.70;6.27;;;22.40;99.90;;;;;;5032160;28;20185;-72
2023/07/14 06:33:40;;;;;;;6.23;5.73;;;22.40;99.90;;;;;;5047313;28;20182;-72
2023/07/14 06:36:06;;;;;;;5.90;5.50;;;22.50;99.90;;;;;;5043863;28;20492;-72
2023/07/14 06:38:34;;;;;;;8.27;7.03;;;22.50;99.90;;;;;;5031138;28;20841;-72
2023/07/14 06:41:02;;;;;;;9.70;7.20;;;22.60;99.90;;;;;;5032267;28;20463;-66
2023/07/14 06:43:30;;;;;;;6.17;5.87;;;22.60;99.90;;;;;;5031984;28;20460;-65
2023/07/14 06:45:57;;;;;;;6.73;6.23;;;22.60;99.90;;;;;;5031583;28;20429;-66
2023/07/14 06:48:24;;;;;;;7.10;6.40;;;22.60;99.90;;;;;;5032036;28;20421;-64
2023/07/14 06:50:50;;;;;;;5.53;5.13;;;22.60;99.90;;;;;;5032741;28;20401;-64
2023/07/14 06:53:17;;;;;;;6.20;5.60;;;22.70;99.90;;;;;;5030640;28;20484;-63
2023/07/14 06:55:43;;;;;;;6.23;5.83;;;22.70;99.90;;;;;;5030356;28;20430;-63
2023/07/14 06:58:09;;;;;;;5.30;5.00;;;22.60;99.90;;;;;;5045378;28;20431;-63
2023/07/14 07:00:35;;;;;;;5.37;4.90;;;22.50;99.90;;;;;;5044853;28;20462;-64
2023/07/14 07:03:04;;;;;;;5.77;5.30;;;22.40;99.90;;;;;;5039038;28;20473;-64
2023/07/14 07:05:33;;;;;;;5.63;5.00;;;22.30;99.90;;;;;;5031943;28;20413;-64
2023/07/14 07:07:59;;;;;;;5.33;4.93;;;22.30;99.90;;;;;;5044918;28;20514;-64
2023/07/14 07:10:25;;;;;;;5.07;4.67;;;22.20;99.90;;;;;;5031777;28;20441;-64
2023/07/14 07:12:51;;;;;;;4.57;4.20;;;22.20;99.90;;;;;;5014413;28;20209;-63
2023/07/14 07:15:16;;;;;;;5.70;5.20;;;22.10;99.90;;;;;;5031287;28;20227;-63
2023/07/14 07:17:43;;;;;;;5.47;4.97;;;22.10;99.90;;;;;;5035438;28;20551;-63
2023/07/14 07:20:09;;;;;;;6.50;5.90;;;22.10;99.90;;;;;;5038279;28;20538;-62
2023/07/14 07:22:36;;;;;;;6.23;4.13;;;22.10;99.90;;;;;;5031381;28;20846;-64
2023/07/14 07:25:03;;;;;;;5.43;4.93;;;22.20;99.90;;;;;;5030827;28;20826;-63
2023/07/14 07:27:29;;;;;;;5.50;4.93;;;22.20;99.90;;;;;;5035465;28;20427;-63
2023/07/14 07:29:55;;;;;;;5.03;4.70;;;22.20;99.90;;;;;;5013285;28;20479;-63
2023/07/14 07:32:20;;;;;;;5.00;4.53;;;22.30;99.90;;;;;;5041352;28;20429;-62
2023/07/14 07:34:47;;;;;;;5.20;4.80;;;22.30;99.90;;;;;;5032276;28;20191;-62
2023/07/14 07:37:12;;;;;;;5.47;5.03;;;22.30;99.90;;;;;;5031262;28;20171;-62
2023/07/14 07:39:39;;;;;;;6.03;5.23;;;22.40;99.90;;;;;;5031764;28;20417;-62
2023/07/14 07:42:06;;;;;;;5.00;4.60;;;22.40;99.90;;;;;;5037108;28;20252;-63
2023/07/14 07:44:32;;;;;;;5.40;5.00;;;22.50;99.90;;;;;;5030741;28;20425;-62
2023/07/14 07:46:58;;;;;;;5.00;4.23;;;22.60;99.90;;;;;;5031142;28;20460;-63
2023/07/14 07:49:24;;;;;;;6.30;3.73;;;22.60;99.90;;;;;;5031383;28;20453;-62
2023/07/14 07:51:50;;;;;;;5.37;4.97;;;22.70;99.90;;;;;;5030989;28;20707;-62
2023/07/14 07:54:16;;;;;;;4.53;4.03;;;22.70;99.90;;;;;;5030720;28;20916;-62
2023/07/14 07:56:42;;;;;;;3.80;3.50;;;22.60;98.60;;;;;;5033603;28;20567;-62
2023/07/14 07:59:17;;;;;;;4.50;4.10;;;22.70;99.10;;;;;;5016892;28;20759;-62
2023/07/14 08:01:45;;;;;;;5.60;5.20;;;22.70;99.70;;;;;;5035315;28;20448;-64
2023/07/14 08:04:12;;;;;;;4.50;4.00;;;22.80;99.20;;;;;;5034648;28;20404;-64
2023/07/14 08:06:54;;;;;;;4.50;4.20;;;22.80;99.90;;;;;;5035339;28;20409;-64
2023/07/14 08:09:20;;;;;;;5.40;5.10;;;22.90;99.90;;;;;;5034459;28;20511;-64
2023/07/14 08:11:48;;;;;;;4.23;4.03;;;23.00;99.50;;;;;;5035312;28;20412;-64
2023/07/14 08:14:15;;;;;;;5.67;5.10;;;23.00;96.90;;;;;;5034631;28;20428;-64
2023/07/14 08:16:41;;;;;;;4.50;4.20;;;23.00;97.90;;;;;;5041255;28;20495;-64
2023/07/14 08:19:08;;;;;;;4.67;4.30;;;23.00;98.50;;;;;;5034893;28;20417;-64
2023/07/14 08:21:37;;;;;;;4.67;4.47;;;23.20;98.50;;;;;;5035368;28;20444;-64
2023/07/14 08:24:04;;;;;;;4.70;4.30;;;23.10;95.80;;;;;;5034783;28;20405;-65
2023/07/14 08:26:33;;;;;;;4.80;3.47;;;23.20;97.10;;;;;;5035257;28;20401;-64
2023/07/14 08:28:59;;;;;;;4.20;4.00;;;23.30;96.20;;;;;;5034720;28;20511;-64
2023/07/14 08:31:25;;;;;;;3.83;3.63;;;23.40;95.70;;;;;;5033380;28;20427;-64
2023/07/14 08:33:51;;;;;;;4.53;3.80;;;23.50;96.70;;;;;;5035356;28;20401;-64
2023/07/14 08:36:18;;;;;;;4.00;3.80;;;23.50;95.90;;;;;;5013764;28;20249;-64
2023/07/14 08:38:44;;;;;;;6.83;4.63;;;23.50;94.80;;;;;;5038136;28;20417;-63
2023/07/14 08:41:20;;;;;;;5.50;5.10;;;23.50;94.90;;;;;;5032926;28;20460;-65
2023/07/14 08:44:17;;;;;;;5.50;5.20;;;23.50;93.90;;;;;;5033696;28;20795;-65
2023/07/14 08:46:58;;;;;;;4.37;4.17;;;23.50;94.00;;;;;;5014896;28;20505;-66
2023/07/14 08:49:33;;;;;;;5.07;4.67;;;23.60;95.20;;;;;;5029865;28;21333;-65
2023/07/14 08:52:15;;;;;;;4.27;4.07;;;23.60;94.80;;;;;;5034348;28;20445;-66
2023/07/14 08:54:46;;;;;;;5.60;5.10;;;23.60;93.80;;;;;;5043590;28;20397;-66
2023/07/14 08:57:19;;;;;;;3.73;3.50;;;23.70;94.20;;;;;;5041127;28;20401;-65
2023/07/14 08:59:46;;;;;;;5.23;4.40;;;23.80;94.20;;;;;;5044768;28;20420;-65
2023/07/14 09:02:25;;;;;;;3.97;3.67;;;24.00;93.90;;;;;;5042715;28;20448;-65
2023/07/14 09:05:13;;;;;;;3.47;3.10;;;24.20;93.40;;;;;;5042917;28;20429;-64
2023/07/14 09:07:39;;;;;;;5.30;4.80;;;24.10;91.30;;;;;;5038760;28;20825;-66
2023/07/14 09:10:08;;;;;;;4.93;4.63;;;24.20;90.90;;;;;;5044843;28;20416;-65
2023/07/14 09:12:42;;;;;;;4.23;4.03;;;24.10;89.50;;;;;;5041688;28;20270;-65
2023/07/14 09:15:19;;;;;;;4.10;3.80;;;24.20;91.60;;;;;;5038784;28;20491;-65
2023/07/14 09:18:16;;;;;;;17.83;15.50;;;24.30;90.60;;;;;;5045576;28;20487;-65
2023/07/14 09:21:03;;;;;;;13.60;12.23;;;24.30;90.00;;;;;;5043941;28;20408;-66
2023/07/14 09:24:11;;;;;;;4.97;4.57;;;24.50;90.30;;;;;;5021228;28;20540;-65
2023/07/14 09:26:41;;;;;;;4.67;4.37;;;24.50;86.90;;;;;;5042419;28;20402;-66
2023/07/14 09:29:32;;;;;;;6.53;3.90;;;24.30;86.20;;;;;;5042016;28;20757;-65
2023/07/14 09:32:11;;;;;;;8.53;7.90;;;24.40;86.10;;;;;;5039273;28;20792;-66
2023/07/14 09:34:54;;;;;;;4.60;4.30;;;24.60;89.30;;;;;;5042450;28;20822;-66
2023/07/14 09:37:23;;;;;;;4.53;4.33;;;24.50;85.60;;;;;;5039917;28;20428;-65
2023/07/14 09:39:58;;;;;;;5.20;4.90;;;24.60;87.90;;;;;;5035965;28;20439;-65
2023/07/14 09:42:29;;;;;;;5.03;4.63;;;24.70;87.90;;;;;;5038377;28;20894;-65
2023/07/14 09:45:08;;;;;;;3.50;3.30;;;24.70;87.60;;;;;;5039448;28;20904;-65
2023/07/14 09:47:35;;;;;;;7.90;7.13;;;24.80;86.30;;;;;;5037673;28;20440;-65
2023/07/14 09:50:01;;;;;;;5.23;4.83;;;24.80;85.00;;;;;;5043187;28;20424;-64
2023/07/14 09:52:28;;;;;;;4.40;4.13;;;24.90;87.30;;;;;;5031937;28;21006;-65
2023/07/14 09:54:59;;;;;;;5.10;4.80;;;25.00;85.90;;;;;;5037702;28;20404;-65
2023/07/14 09:57:27;;;;;;;4.20;3.90;;;25.00;82.40;;;;;;5039436;28;20408;-66
2023/07/14 09:59:59;;;;;;;3.90;3.60;;;25.20;86.10;;;;;;5040322;28;20486;-66
2023/07/14 10:02:30;;;;;;;4.77;4.47;;;25.20;83.30;;;;;;5042911;28;20535;-65
2023/07/14 10:05:03;;;;;;;52.67;43.67;;;25.20;82.20;;;;;;5041950;28;20432;-67
2023/07/14 10:07:40;;;;;;;13.83;12.43;;;25.30;84.00;;;;;;5037645;28;20432;-65
2023/07/14 10:10:08;;;;;;;7.43;6.53;;;25.30;82.20;;;;;;5039983;28;20420;-65
2023/07/14 10:12:42;;;;;;;4.07;3.77;;;25.30;83.40;;;;;;5037010;28;20418;-70
2023/07/14 10:15:30;;;;;;;4.97;4.67;;;25.20;80.90;;;;;;5032593;28;20843;-65
2023/07/14 10:17:58;;;;;;;5.20;4.70;;;25.20;83.40;;;;;;5031856;28;20444;-70
2023/07/14 10:20:24;;;;;;;4.40;4.10;;;25.30;84.00;;;;;;5031713;28;20441;-68
2023/07/14 10:22:53;;;;;;;4.27;3.97;;;25.20;82.60;;;;;;5049574;28;20459;-70
2023/07/14 10:25:20;;;;;;;4.60;4.30;;;25.40;84.70;;;;;;5030832;28;20417;-70
2023/07/14 10:28:13;;;;;;;5.63;5.20;;;25.60;79.90;;;;;;5030966;28;20471;-70
2023/07/14 10:30:57;;;;;;;4.27;4.07;;;25.70;79.80;;;;;;5035974;28;20412;-70
2023/07/14 10:33:54;;;;;;;4.40;4.20;;;25.90;82.90;;;;;;5050202;28;20400;-70
2023/07/14 10:36:30;;;;;;;3.63;3.33;;;26.00;80.80;;;;;;4998360;28;20411;-70
2023/07/14 10:39:23;;;;;;;4.03;3.83;;;26.20;82.30;;;;;;5024369;28;20432;-70
2023/07/14 10:41:51;;;;;;;5.27;4.70;;;26.20;78.30;;;;;;5028233;28;20463;-70
2023/07/14 10:44:27;;;;;;;4.27;3.97;;;26.10;76.00;;;;;;5032045;28;20432;-70
2023/07/14 10:46:59;;;;;;;6.00;5.60;;;26.20;76.80;;;;;;5032749;28;20406;-70
2023/07/14 10:49:42;;;;;;;4.30;4.00;;;26.30;78.30;;;;;;5032167;28;20405;-70
2023/07/14 10:52:31;;;;;;;5.60;5.30;;;26.50;78.70;;;;;;5032684;28;20421;-70
2023/07/14 10:55:00;;;;;;;3.83;3.63;;;26.30;74.70;;;;;;5032583;28;20480;-70
2023/07/14 10:57:42;;;;;;;3.93;3.63;;;26.40;76.30;;;;;;5032066;28;20443;-70
2023/07/14 11:00:53;;;;;;;4.50;4.17;;;26.40;78.60;;;;;;5032860;28;20389;-70
2023/07/14 11:03:38;;;;;;;4.23;4.03;;;26.40;74.10;;;;;;5008198;28;20814;-70
2023/07/14 11:06:20;;;;;;;4.70;4.40;;;26.30;72.60;;;;;;5032669;28;20385;-70
2023/07/14 11:08:54;;;;;;;4.83;4.43;;;26.20;71.10;;;;;;5032607;28;20503;-70
2023/07/14 11:12:03;;;;;;;4.63;4.40;;;26.20;72.60;;;;;;5031561;28;20441;-70
2023/07/14 11:15:07;;;;;;;4.40;4.10;;;26.30;71.40;;;;;;5023806;28;20771;-70
2023/07/14 11:17:32;;;;;;;4.53;4.33;;;25.90;72.80;;;;;;5021762;28;20469;-71
2023/07/14 11:20:08;;;;;;;4.80;4.40;;;25.90;72.20;;;;;;5013143;28;20442;-70
2023/07/14 11:22:42;;;;;;;4.77;4.37;;;25.90;71.10;;;;;;5012181;28;20190;-70
2023/07/14 11:25:21;;;;;;;4.73;4.43;;;25.90;72.80;;;;;;5012849;28;20410;-70
2023/07/14 11:28:28;;;;;;;4.17;3.87;;;26.10;74.70;;;;;;5020560;28;20809;-70
2023/07/14 11:30:59;;;;;;;4.80;4.40;;;26.10;71.30;;;;;;4915872;29;20429;-70
2023/07/14 11:33:42;;;;;;;4.10;3.90;;;25.70;71.10;;;;;;4986441;28;20457;-70
2023/07/14 11:36:16;;;;;;;4.80;4.50;;;25.90;75.70;;;;;;5014929;28;20413;-71
2023/07/14 11:38:48;;;;;;;4.43;4.13;;;25.80;70.10;;;;;;5023621;28;20463;-70
2023/07/14 11:41:16;;;;;;;4.10;3.80;;;25.70;71.10;;;;;;5024061;28;20449;-69
2023/07/14 11:43:43;;;;;;;4.03;3.63;;;26.00;73.70;;;;;;5013290;28;20440;-70
2023/07/14 11:46:14;;;;;;;3.97;3.67;;;26.30;73.90;;;;;;5020605;28;20427;-70
2023/07/14 11:48:57;;;;;;;5.73;5.43;;;26.40;69.80;;;;;;5018205;28;20426;-71
2023/07/14 11:51:44;;;;;;;6.17;3.53;;;26.40;69.40;;;;;;5004185;28;20918;-70
2023/07/14 11:54:40;;;;;;;3.30;3.10;;;26.20;68.00;;;;;;5004766;28;20778;-65
2023/07/14 11:57:13;;;;;;;4.97;4.67;;;26.20;69.20;;;;;;5034243;28;20408;-69
2023/07/14 12:00:00;;;;;;;4.70;4.40;;;26.20;69.40;;;;;;5029846;28;20509;-71
2023/07/14 12:02:29;;;;;;;3.93;3.63;;;26.20;70.60;;;;;;5016241;28;20445;-71
2023/07/14 12:05:14;;;;;;;4.13;3.10;;;26.40;70.80;;;;;;5023747;28;20432;-70
2023/07/14 12:08:01;;;;;;;4.97;4.50;;;26.50;69.30;;;;;;5035009;28;20427;-71
2023/07/14 12:10:41;;;;;;;4.27;3.97;;;26.50;69.50;;;;;;5035040;28;20405;-70
2023/07/14 12:13:16;;;;;;;3.60;3.30;;;26.70;69.60;;;;;;5032024;28;20410;-70
2023/07/14 12:15:46;;;;;;;5.20;4.80;;;26.70;66.70;;;;;;5025717;28;20553;-70
2023/07/14 12:18:22;;;;;;;3.60;3.40;;;26.70;70.20;;;;;;5031191;28;20429;-66
2023/07/14 12:20:50;;;;;;;3.37;3.13;;;26.80;70.10;;;;;;5013588;28;20516;-70
2023/07/14 12:23:34;;;;;;;4.30;4.00;;;26.80;69.70;;;;;;5019913;28;20514;-66
2023/07/14 12:26:17;;;;;;;183.67;164.00;;;27.00;71.60;;;;;;5019603;28;20433;-70
2023/07/14 12:28:43;;;;;;;126.80;112.90;;;27.00;67.00;;;;;;5001714;28;20472;-69
2023/07/14 12:31:14;;;;;;;18.77;16.83;;;27.00;65.70;;;;;;5018855;28;20410;-69
2023/07/14 12:33:40;;;;;;;5.60;5.30;;;27.20;68.30;;;;;;5021798;28;20460;-70
2023/07/14 12:36:16;;;;;;;5.90;5.30;;;27.20;63.30;;;;;;5023568;28;20507;-69
2023/07/14 12:38:47;;;;;;;4.90;4.50;;;27.10;64.00;;;;;;5004588;28;20410;-70
2023/07/14 12:41:14;;;;;;;4.83;4.53;;;27.10;66.00;;;;;;5014478;28;20837;-64
2023/07/14 12:43:55;;;;;;;4.27;3.97;;;27.20;68.50;;;;;;5011305;28;20426;-65
2023/07/14 12:46:21;;;;;;;7.37;6.97;;;27.10;69.40;;;;;;5010631;28;20418;-65
2023/07/14 12:48:48;;;;;;;4.20;3.90;;;27.00;66.60;;;;;;5028607;28;20425;-65
2023/07/14 12:51:18;;;;;;;4.60;4.20;;;26.80;63.20;;;;;;5026171;28;20941;-65
2023/07/14 12:54:09;;;;;;;5.03;4.73;;;26.60;63.70;;;;;;5030438;28;20389;-65
2023/07/14 12:56:35;;;;;;;5.70;5.40;;;26.60;65.50;;;;;;4999836;28;20666;-65
2023/07/14 12:59:04;;;;;;;3.67;3.47;;;26.60;67.10;;;;;;5011386;28;20413;-65
2023/07/14 13:01:31;;;;;;;4.03;3.77;;;26.70;68.20;;;;;;5013521;28;20229;-64
2023/07/14 13:03:57;;;;;;;5.40;5.10;;;26.80;69.20;;;;;;5015193;28;20483;-64